Relevés horaires Laegern (Suisse)


Relevés horaires à Laegern - Dimanche 09 Mai 2021
Heure UTC1 Température [°C] Vent [km/h] Hum. [%] Pres.4 [hPa] Visi. [Km] Nébu. [octa] Préc.5 [mm] Cond.
2m. Res. Ros. Dir.2 Vit. Moy. Raf.3
23:00 17.6 17.6 2.1 SSE 0.0 -- 42.6 35 850(-0.5/3h) -- -- -- --
22:00 17.5 17.5 2.4 SSE 0.0 -- 42.6 36 850(0.2/3h) -- -- -- --
21:00 17.8 17.8 2.2 S 0.0 -- 50.0 35 850(0.2/3h) -- -- -- --
20:00 18.0 18.0 2.3 S 0.0 -- 44.4 35 850(-0.1/3h) -- -- -- --
19:00 19.0 19.0 2.3 S 0.0 -- 40.7 33 850(-0.2/3h) -- -- -- --
18:00 20.2 20.2 5.1 S 0.0 -- 33.3 37 850(-0.4/3h) -- -- -- --
17:00 21.5 21.5 7.0 SSO 0.0 -- 24.1 39 850(-0.6/3h) -- -- -- --
16:00 22.2 22.2 5.1 S 0.0 -- 27.8 33 850(-1.3/3h) -- -- -- --
15:00 22.7 22.7 6.0 S 0.0 -- 16.7 34 850(-1.4/3h) -- -- -- --
14:00 21.5 21.5 7.8 NO 0.0 -- 9.3 41 850(-1.7/3h) -- -- -- --
13:00 22.3 22.3 7.1 SSE 0.0 -- 11.1 37 850(-1.6/3h) -- -- -- --
12:00 19.7 19.7 5.1 NNE 0.0 -- 18.5 38 850(-1.7/3h) -- -- -- --
11:00 19.5 19.5 5.0 N 0.0 -- 11.1 38 850(-1.3/3h) -- -- -- --
10:00 16.8 16.8 4.6 NNO 0.0 -- 11.1 44 850(-1.0/3h) -- -- -- --
09:00 16.3 16.3 6.9 SO 0.0 -- 18.5 54 850(-0.4/3h) -- -- -- --
08:00 15.3 15.3 2.0 S 0.0 -- 14.8 41 850(-0.1/3h) -- -- -- --
07:00 15.1 15.1 -1.4 S 0.0 -- 18.5 32 850(-0.1/3h) -- -- -- --
06:00 14.2 14.2 -1.5 S 0.0 -- 37.0 34 850(-0.1/3h) -- -- -- --
05:00 14.1 14.1 -2.1 S 0.0 -- 25.9 33 850(-0.4/3h) -- -- -- --
04:00 13.4 13.4 -0.4 SSE 0.0 -- 27.8 39 850(-0.5/3h) -- -- -- --
03:00 13.0 13.0 0.4 SSE 0.0 -- 37.0 42 850(-0.8/3h) -- -- -- --
02:00 13.2 13.2 0.7 S 0.0 -- 37.0 42 850(-1.0/3h) -- -- -- --
01:00 14.3 14.3 0.8 S 0.0 -- 33.3 40 850(-1.1/3h) -- -- -- --
00:00 14.4 14.4 1.2 S 0.0 -- 31.5 41 850(-0.8/3h) -- -- -- --

1 Coordinated Universal Time. Actuellement il est 12:00 locale et 10:00 UTC.

2 Le vent souffle depuis la direction indiquée vers la direction oposée.

3 Les rafales max. sont disponible 40 min après l'heure du relevé.

4 Pour les stations d'altitude (plus de 600m) le géopotentiel du niveau le plus proche de la pression obligatoire est indiqué.

5 Les stations disposant d'un diffuseur peuvent indiquer "trace". Cela signifie que des précipitations ont touchés le sol mais que la quantité est inférieure à 0.1 mm.

Copyright

Les données affichées sur cette page sont la propriété exclusive de Météo Suisse.

Récapitulatif de la journée
Température [°C] Vent [km/h] Ensoleillement4 [h] Precipitations totale5 [mm] Pression [Hpa]
Min1 Max.2 Moy.3 Max. Min Max.
13.0 24.0 0 50.0 13 h 48 min 0 850.0 850.0

1 Température minimale relevée entre 18:00 UTC la veille et 18:00 UTC le jour donné.

2 Température maximale relevée entre 06:00 UTC le jour donné et 06:00 UTC le lendemain.

3 Vent moyen de la journée basé sur les relevés horaires.

4 Ensoleillement en heures relevé entre 06:00 UTC la veille et 06:00 UTC le jour donné.

5 Précipitations totales tombées entre 06:00 UTC la jour donné et 06:00 UTC le lendemain.

Graphiques horaires